KBDR/BDR METAR and TAF weather

Enter ICAO airport designator
Station Type Date Time Source
KBDR METAR 2022/12/05 14:52 UTC NOAA

KBDR 051452Z 25005KT 10SM CLR 06/M01 A3031 RMK AO2 SLP263 T00561006 51019


Station Type Date Time Source
KBDR Decoded METAR 2022/12/05 14:52 UTC NOAA

SIKORSKY MEMORIAL AIRPORT, CT, United States (KBDR) 41-10N 073-08W 7M
Dec 05, 2022 - 09:52 AM EST / 2022.12.05 1452 UTC
Wind: from the WSW (250 degrees) at 6 MPH (5 KT):0
Visibility: 10 mile(s):0
Sky conditions: clear
Temperature: 42.1 F (5.6 C)
Dew Point: 30.9 F (-0.6 C)
Relative Humidity: 64%
Pressure (altimeter): 30.31 in. Hg (1026 hPa)
Pressure tendency: 0.06 inches (1.9 hPa) higher than three hours ago
ob: KBDR 051452Z 25005KT 10SM CLR 06/M01 A3031 RMK AO2 SLP263 T00561006 51019
cycle: 15

Station Type Date Time Source
KBDR TAF 2022/12/05 15:42 UTC NOAA

TAF
AMD KBDR 051438Z 0515/0612 21006KT P6SM FEW250
FM051800 19009KT P6SM FEW150 SCT250
FM060400 VRB04KT P6SM SCT030 BKN150 BKN250
FM060900 08005KT P6SM OVC050

Example: see airport list